메인 페이지
METAR-TAF:

METAR-TAF

공항 :

Garden City, 캔자스, 미국

위도: 37-55-39N, 경도: 100-43-28W, 고도: 881m

현재 날씨관측

예보는 45분 전, 04:54시(UTC)에 발표되었습니다.
남남동19kt, 순간 최대 풍속 35kt
온도 21°C
습도 88%
기압 1016 hPa
시정: 16.1km
고도 11000ft 상공 구름 조금

METAR: KGCK 240454Z AUTO 16019G35KT 10SM FEW110 21/19 A2999 RMK AO2 PK WND 15038/0410 RAE0357 SLP125 P0000 T02110194

시각: 00:39 (05:39 UTC)

예보

예보는 19분 전, 05:20시(UTC)에 발표되었습니다.
예보 대상 시간: 24일 06시부터 25일 06시까지 (UTC)
남남동29kt, 순간 최대 풍속 41kt
시정: 10km
고도 8000ft 상공 구름 조금
고도 9000ft 상공 구름 보통
고도 11000ft 상공 구름 많음
약한비
24일 0800시부터 (UTC)
남동10kt
시정: 10km
고도 1400ft 상공 구름 많음
24일 2100시부터 (UTC)
13kt
시정: 10km
고도 9000ft 상공 구름 보통
25일 0300시부터 (UTC)
남남동14kt
시정: 10km
고도 7000ft 상공 흐림, 적란운.
시계 내 뇌우

TAF: KGCK 240520Z 2406/2506 15029G41KT P6SM -RA FEW080 SCT090 BKN110 FM240800 13010KT P6SM BKN014 FM242100 17013KT P6SM SCT090 FM250300 16014KT P6SM VCTS OVC070CB

4,000개 이상의 공항 관측 자료 및 예보 (METAR 및 TAF 보고).

지도상에서 검색 가능한 기상관측소가 노란 점과 빨간 점으로 표시되어 있습니다.

기상관측소 명을 보려면 표시 위로 마우스를 이동하세요.

날씨 관측과 예보를 보려면 클릭하세요.

지도 변경 : 확대하려면 엑스 표시가 있는 녹색 버튼, 축소하려면 빼기 표시가 있는 녹색 버튼, 다음 페이지의 지도를 보려면 녹색 화살표를 클릭하세요.


METAR-TAF: